createdAt,value
2023-01-25T00:00:30.883Z,99437.75
2023-01-25T00:03:03.172Z,99438.83
2023-01-25T00:05:35.274Z,99436.42
2023-01-25T00:08:08.014Z,99437.13
2023-01-25T00:10:40.029Z,99437.85
2023-01-25T00:13:12.074Z,99438.73
2023-01-25T00:15:44.068Z,99438.25
2023-01-25T00:18:16.117Z,99438.59
2023-01-25T00:20:48.213Z,99433.92
2023-01-25T00:23:20.137Z,99433.36
2023-01-25T00:25:57.903Z,99429.48
2023-01-25T00:28:30.769Z,99426.48
2023-01-25T00:31:05.178Z,99421.65
2023-01-25T00:33:50.925Z,99420.90
2023-01-25T00:36:41.377Z,99411.88
2023-01-25T00:39:15.987Z,99415.66
2023-01-25T00:41:48.077Z,99423.23
2023-01-25T00:44:20.375Z,99415.38
2023-01-25T00:46:52.334Z,99409.92
2023-01-25T00:49:26.058Z,99404.60
2023-01-25T00:51:58.674Z,99404.61
2023-01-25T00:54:31.019Z,99400.38
2023-01-25T00:57:02.917Z,99400.50
2023-01-25T00:59:36.056Z,99402.20
2023-01-25T01:02:08.162Z,99400.41
2023-01-25T01:04:40.539Z,99400.16
2023-01-25T01:07:15.601Z,99399.63
2023-01-25T01:09:46.027Z,99402.36
2023-01-25T01:12:18.113Z,99399.22
2023-01-25T01:14:50.287Z,99398.28
2023-01-25T01:17:22.357Z,99393.25
2023-01-25T01:19:54.615Z,99387.30
2023-01-25T01:22:26.598Z,99385.94
2023-01-25T01:24:58.711Z,99383.95
2023-01-25T01:27:30.775Z,99382.11
2023-01-25T01:30:02.645Z,99381.29
2023-01-25T01:32:34.744Z,99374.23
2023-01-25T01:35:09.306Z,99375.89
2023-01-25T01:37:45.264Z,99368.48
2023-01-25T01:40:19.976Z,99356.55
2023-01-25T01:43:02.779Z,99353.16
2023-01-25T01:45:57.597Z,99346.41
2023-01-25T01:48:42.992Z,99342.77
2023-01-25T01:51:48.180Z,99342.39
2023-01-25T01:54:29.097Z,99332.55
2023-01-25T01:57:06.289Z,99329.66
2023-01-25T01:59:42.884Z,99331.63
2023-01-25T02:02:16.006Z,99334.58
2023-01-25T02:04:51.679Z,99339.49
2023-01-25T02:07:29.188Z,99339.68
2023-01-25T02:10:02.669Z,99338.27
2023-01-25T02:12:35.765Z,99344.31
2023-01-25T02:15:09.769Z,99348.36
2023-01-25T02:17:43.369Z,99346.35
2023-01-25T02:20:26.011Z,99344.67
2023-01-25T02:23:02.116Z,99341.38
2023-01-25T02:25:34.076Z,99342.86
2023-01-25T02:28:13.474Z,99339.98
2023-01-25T02:30:46.846Z,99337.55
2023-01-25T02:33:21.241Z,99333.40
2023-01-25T02:36:00.501Z,99330.70
2023-01-25T02:38:37.139Z,99327.25
2023-01-25T02:41:13.770Z,99327.84
2023-01-25T02:43:46.455Z,99329.33
2023-01-25T02:46:23.316Z,99328.77
2023-01-25T02:48:56.118Z,99330.73
2023-01-25T02:51:31.995Z,99333.40
2023-01-25T02:54:04.490Z,99331.64
2023-01-25T02:56:36.728Z,99328.67
2023-01-25T02:59:09.142Z,99332.83
2023-01-25T03:01:43.067Z,99327.02
2023-01-25T03:04:16.216Z,99328.38
2023-01-25T03:06:48.305Z,99323.17
2023-01-25T03:09:20.813Z,99321.65
2023-01-25T03:11:54.100Z,99317.54
2023-01-25T03:14:27.269Z,99310.45
2023-01-25T03:16:59.407Z,99311.20
2023-01-25T03:19:31.767Z,99311.87
2023-01-25T03:22:04.038Z,99309.40
2023-01-25T03:24:36.266Z,99309.05
2023-01-25T03:27:14.927Z,99303.59
2023-01-25T03:29:49.399Z,99301.52
2023-01-25T03:32:25.956Z,99300.86
2023-01-25T03:34:59.440Z,99304.05
2023-01-25T03:37:31.804Z,99300.64
2023-01-25T03:40:04.458Z,99299.41
2023-01-25T03:42:42.935Z,99295.54
2023-01-25T03:45:15.752Z,99296.29
2023-01-25T03:47:48.163Z,99294.66
2023-01-25T03:50:21.133Z,99293.67
2023-01-25T03:53:20.243Z,99292.33
2023-01-25T03:55:54.339Z,99287.96
2023-01-25T03:58:26.857Z,99288.07
2023-01-25T04:01:01.377Z,99279.77
2023-01-25T04:03:34.241Z,99279.46
2023-01-25T04:06:07.598Z,99280.37
2023-01-25T04:08:40.177Z,99276.95
2023-01-25T04:11:13.531Z,99277.71
2023-01-25T04:13:46.580Z,99279.28
2023-01-25T04:16:18.360Z,99274.94
2023-01-25T04:19:25.873Z,99271.77
2023-01-25T04:22:01.824Z,99272.86
2023-01-25T04:24:39.800Z,99270.39
2023-01-25T04:27:12.702Z,99273.70
2023-01-25T04:29:50.621Z,99275.83
2023-01-25T04:32:22.597Z,99275.97
2023-01-25T04:34:54.763Z,99273.61
2023-01-25T04:37:28.499Z,99274.08
2023-01-25T04:40:04.638Z,99270.10
2023-01-25T04:42:40.447Z,99263.08
2023-01-25T04:45:13.695Z,99263.29
2023-01-25T04:47:44.246Z,99261.60
2023-01-25T04:50:15.934Z,99260.96
2023-01-25T04:52:47.987Z,99257.47
2023-01-25T04:55:20.728Z,99250.27
2023-01-25T04:57:53.837Z,99252.01
2023-01-25T05:00:26.120Z,99248.85
2023-01-25T05:02:58.681Z,99248.30
2023-01-25T05:05:31.137Z,99245.61
2023-01-25T05:08:03.829Z,99246.20
2023-01-25T05:10:35.848Z,99246.09
2023-01-25T05:13:26.119Z,99240.84
2023-01-25T05:16:09.016Z,99242.41
2023-01-25T05:18:48.507Z,99235.81
2023-01-25T05:21:45.065Z,99237.08
2023-01-25T05:24:18.666Z,99236.59
2023-01-25T05:27:04.120Z,99234.52
2023-01-25T05:30:02.415Z,99230.45
2023-01-25T05:32:43.318Z,99226.09
2023-01-25T05:35:15.577Z,99225.30
2023-01-25T05:37:48.624Z,99229.23
2023-01-25T05:40:26.967Z,99229.14
2023-01-25T05:43:05.040Z,99232.67
2023-01-25T05:45:37.627Z,99232.45
2023-01-25T05:48:10.881Z,99232.88
2023-01-25T05:50:43.301Z,99227.98
2023-01-25T05:53:19.906Z,99227.86
2023-01-25T05:55:51.808Z,99223.80
2023-01-25T05:58:24.047Z,99225.84
2023-01-25T06:01:03.374Z,99225.95
2023-01-25T06:03:41.065Z,99224.41
2023-01-25T06:06:13.533Z,99231.03
2023-01-25T06:08:46.056Z,99233.53
2023-01-25T06:11:20.332Z,99233.55
2023-01-25T06:13:55.814Z,99231.52
2023-01-25T06:16:28.526Z,99231.69
2023-01-25T06:19:32.906Z,99226.00
2023-01-25T06:22:27.970Z,99229.56
2023-01-25T06:25:00.397Z,99228.81
2023-01-25T06:27:33.037Z,99227.91
2023-01-25T06:30:05.803Z,99226.84
2023-01-25T06:32:38.111Z,99224.80
2023-01-25T06:35:11.945Z,99226.33
2023-01-25T06:37:44.186Z,99230.34
2023-01-25T06:40:20.717Z,99228.19
2023-01-25T06:42:52.806Z,99225.73
2023-01-25T06:45:24.898Z,99223.71
2023-01-25T06:47:56.987Z,99219.95
2023-01-25T06:50:29.188Z,99213.92
2023-01-25T06:53:01.860Z,99216.16
2023-01-25T06:55:33.963Z,99217.63
2023-01-25T06:58:05.917Z,99212.61
2023-01-25T07:00:39.128Z,99209.96
2023-01-25T07:03:14.178Z,99208.80
2023-01-25T07:05:46.635Z,99205.44
2023-01-25T07:08:18.867Z,99206.60
2023-01-25T07:10:57.027Z,99207.64
2023-01-25T07:13:30.917Z,99207.04
2023-01-25T07:16:06.413Z,99205.08
2023-01-25T07:18:39.109Z,99208.15
2023-01-25T07:21:13.164Z,99209.35
2023-01-25T07:23:45.557Z,99205.67
2023-01-25T07:26:20.747Z,99203.04
2023-01-25T07:28:53.277Z,99200.29
2023-01-25T07:31:26.253Z,99195.35
2023-01-25T07:33:59.967Z,99186.11
2023-01-25T07:36:32.655Z,99186.60
2023-01-25T07:39:05.317Z,99187.23
2023-01-25T07:41:37.640Z,99186.61
2023-01-25T07:44:11.508Z,99189.27
2023-01-25T07:46:48.530Z,99182.34
2023-01-25T07:49:20.988Z,99183.58
2023-01-25T07:51:53.019Z,99184.13
2023-01-25T07:54:25.091Z,99181.63
2023-01-25T07:56:58.122Z,99178.96
2023-01-25T07:59:32.281Z,99178.66
2023-01-25T08:02:04.375Z,99177.66
2023-01-25T08:04:36.712Z,99174.73
2023-01-25T08:07:08.847Z,99175.05
2023-01-25T08:09:41.563Z,99175.90
2023-01-25T08:12:13.607Z,99174.07
2023-01-25T08:14:45.907Z,99170.42
2023-01-25T08:17:18.095Z,99161.41
2023-01-25T08:19:50.237Z,99164.06
2023-01-25T08:22:22.399Z,99167.48
2023-01-25T08:24:54.612Z,99165.02
2023-01-25T08:27:26.648Z,99163.45
2023-01-25T08:29:58.786Z,99161.93
2023-01-25T08:32:31.462Z,99160.66
2023-01-25T08:35:03.539Z,99157.52
2023-01-25T08:37:35.715Z,99154.64
2023-01-25T08:40:09.340Z,99151.96
2023-01-25T08:42:43.420Z,99147.12
2023-01-25T08:45:15.833Z,99143.41
2023-01-25T08:47:48.011Z,99142.09
2023-01-25T08:50:20.707Z,99139.60
2023-01-25T08:52:53.329Z,99135.42
2023-01-25T08:55:25.461Z,99136.70
2023-01-25T08:57:57.743Z,99131.66
2023-01-25T09:00:30.011Z,99130.55
2023-01-25T09:03:02.378Z,99126.65
2023-01-25T09:05:35.081Z,99125.42
2023-01-25T09:08:08.564Z,99134.51
2023-01-25T09:10:41.386Z,99139.53
2023-01-25T09:13:14.740Z,99134.02
2023-01-25T09:15:45.934Z,99131.19
2023-01-25T09:18:18.193Z,99135.73
2023-01-25T09:20:50.298Z,99134.38
2023-01-25T09:23:24.172Z,99127.98
2023-01-25T09:26:01.824Z,99128.33
2023-01-25T09:28:35.249Z,99122.73
2023-01-25T09:31:21.028Z,99121.41
2023-01-25T09:34:18.785Z,99115.80
2023-01-25T09:36:51.067Z,99114.48
2023-01-25T09:39:23.412Z,99106.14
2023-01-25T09:42:24.581Z,99102.83
2023-01-25T09:45:24.234Z,99099.50
2023-01-25T09:48:00.317Z,99098.94
2023-01-25T09:50:43.460Z,99094.33
2023-01-25T09:53:31.372Z,99087.98
2023-01-25T09:56:11.781Z,99081.70
2023-01-25T09:58:47.836Z,99080.80
2023-01-25T10:01:38.050Z,99080.04
2023-01-25T10:04:16.908Z,99078.65
2023-01-25T10:07:01.034Z,99079.37
2023-01-25T10:09:44.136Z,99070.88
2023-01-25T10:12:21.378Z,99073.11
2023-01-25T10:14:54.670Z,99075.22
2023-01-25T10:17:35.170Z,99073.18
2023-01-25T10:20:16.972Z,99069.67
2023-01-25T10:22:54.785Z,99070.09
2023-01-25T10:25:37.327Z,99063.09
2023-01-25T10:28:33.086Z,99058.56
2023-01-25T10:31:13.104Z,99055.36
2023-01-25T10:33:48.529Z,99052.04
2023-01-25T10:36:29.272Z,99046.19
2023-01-25T10:39:01.532Z,99043.23
2023-01-25T10:41:41.065Z,99041.41
2023-01-25T10:44:27.388Z,99037.98
2023-01-25T10:47:07.653Z,99036.08
2023-01-25T10:49:48.114Z,99037.54
2023-01-25T10:52:23.407Z,99031.80
2023-01-25T10:55:15.867Z,99025.29
2023-01-25T10:57:52.820Z,99019.27
2023-01-25T11:00:30.751Z,99016.11
2023-01-25T11:03:03.154Z,99010.92
2023-01-25T11:05:38.214Z,99000.89
2023-01-25T11:08:34.011Z,98995.54
2023-01-25T11:11:25.613Z,98987.89
2023-01-25T11:13:58.066Z,98982.09
2023-01-25T11:16:36.817Z,98976.69
2023-01-25T11:19:29.274Z,98980.02
2023-01-25T11:22:03.209Z,98974.26
2023-01-25T11:24:37.785Z,98969.81
2023-01-25T11:27:22.582Z,98958.33
2023-01-25T11:30:12.381Z,98954.67
2023-01-25T11:32:44.668Z,98952.09
2023-01-25T11:35:20.203Z,98946.06
2023-01-25T11:38:10.848Z,98945.30
2023-01-25T11:40:48.830Z,98944.70
2023-01-25T11:43:47.743Z,98940.73
2023-01-25T11:46:35.320Z,98938.77
2023-01-25T11:49:26.502Z,98935.55
2023-01-25T11:52:09.919Z,98927.15
2023-01-25T11:54:52.746Z,98929.21
2023-01-25T11:57:45.036Z,98929.89
2023-01-25T12:00:36.583Z,98927.08
2023-01-25T12:03:49.689Z,98923.39
2023-01-25T12:06:29.398Z,98918.83
2023-01-25T12:09:22.005Z,98917.89
2023-01-25T12:12:11.801Z,98911.83
2023-01-25T12:14:59.388Z,98911.92
2023-01-25T12:17:45.652Z,98911.88
2023-01-25T12:20:42.045Z,98901.55
2023-01-25T12:23:27.928Z,98902.05
2023-01-25T12:26:12.892Z,98893.72
2023-01-25T12:28:50.392Z,98887.28
2023-01-25T12:31:26.560Z,98887.21
2023-01-25T12:34:03.736Z,98878.81
2023-01-25T12:36:42.305Z,98877.40
2023-01-25T12:39:19.860Z,98869.48
2023-01-25T12:41:57.790Z,98870.92
2023-01-25T12:44:38.179Z,98870.67
2023-01-25T12:47:17.419Z,98863.79
2023-01-25T12:49:54.695Z,98859.10
2023-01-25T12:52:32.003Z,98855.95
2023-01-25T12:55:06.626Z,98852.21
2023-01-25T12:57:45.910Z,98849.42
2023-01-25T13:00:27.918Z,98850.73
2023-01-25T13:03:18.842Z,98844.27
2023-01-25T13:05:55.892Z,98845.87
2023-01-25T13:08:39.256Z,98840.64
2023-01-25T13:11:20.697Z,98836.87
2023-01-25T13:13:52.830Z,98840.92
2023-01-25T13:16:38.508Z,98834.75
2023-01-25T13:19:22.699Z,98829.05
2023-01-25T13:21:57.015Z,98831.05
2023-01-25T13:24:30.708Z,98829.59
2023-01-25T13:27:26.517Z,98828.48
2023-01-25T13:30:26.928Z,98823.06
2023-01-25T13:33:02.450Z,98820.77
2023-01-25T13:35:37.823Z,98822.52
2023-01-25T13:38:31.194Z,98815.39
2023-01-25T13:41:17.242Z,98810.92
2023-01-25T13:43:56.115Z,98806.73
2023-01-25T13:46:29.426Z,98805.31
2023-01-25T13:49:08.479Z,98804.36
2023-01-25T13:51:44.008Z,98799.95
2023-01-25T13:54:19.879Z,98797.64
2023-01-25T13:57:04.328Z,98799.02
2023-01-25T13:59:36.717Z,98802.65
2023-01-25T14:02:15.342Z,98800.27
2023-01-25T14:04:51.889Z,98787.23
2023-01-25T14:07:29.671Z,98790.17
2023-01-25T14:10:05.878Z,98786.21
2023-01-25T14:12:41.228Z,98785.66
2023-01-25T14:15:25.838Z,98779.92
2023-01-25T14:18:19.582Z,98775.63
2023-01-25T14:20:53.779Z,98777.29
2023-01-25T14:23:28.312Z,98776.80
2023-01-25T14:26:02.413Z,98778.52
2023-01-25T14:28:34.678Z,98780.69
2023-01-25T14:31:07.742Z,98778.50
2023-01-25T14:33:44.911Z,98775.91
2023-01-25T14:36:25.261Z,98779.45
2023-01-25T14:38:58.387Z,98775.98
2023-01-25T14:41:34.948Z,98772.27
2023-01-25T14:44:14.649Z,98769.86
2023-01-25T14:46:47.099Z,98766.95
2023-01-25T14:49:29.119Z,98758.85
2023-01-25T14:52:07.620Z,98757.44
2023-01-25T14:54:46.560Z,98757.36
2023-01-25T14:57:32.348Z,98754.79
2023-01-25T15:00:09.675Z,98752.92
2023-01-25T15:02:48.217Z,98752.23
2023-01-25T15:05:25.789Z,98749.90
2023-01-25T15:07:59.151Z,98743.27
2023-01-25T15:10:32.749Z,98744.59
2023-01-25T15:13:20.850Z,98745.95
2023-01-25T15:16:13.441Z,98738.19
2023-01-25T15:18:48.075Z,98737.41
2023-01-25T15:21:21.920Z,98729.26
2023-01-25T15:23:52.675Z,98728.75
2023-01-25T15:26:26.400Z,98726.90
2023-01-25T15:29:01.379Z,98728.95
2023-01-25T15:31:36.471Z,98726.14
2023-01-25T15:34:15.839Z,98721.87
2023-01-25T15:36:48.260Z,98718.09
2023-01-25T15:39:21.736Z,98716.05
2023-01-25T15:41:54.071Z,98716.90
2023-01-25T15:44:26.077Z,98708.42
2023-01-25T15:46:59.085Z,98708.14
2023-01-25T15:49:33.041Z,98706.52
2023-01-25T15:52:03.287Z,98704.88
2023-01-25T15:54:35.198Z,98702.13
2023-01-25T15:57:08.470Z,98702.11
2023-01-25T15:59:40.766Z,98706.28
2023-01-25T16:02:16.484Z,98703.30
2023-01-25T16:04:49.793Z,98701.33
2023-01-25T16:07:26.954Z,98697.01
2023-01-25T16:09:59.127Z,98696.04
2023-01-25T16:12:32.739Z,98696.30
2023-01-25T16:15:07.495Z,98695.39
2023-01-25T16:17:39.513Z,98694.34
2023-01-25T16:20:20.400Z,98691.94
2023-01-25T16:23:13.079Z,98690.65
2023-01-25T16:25:50.920Z,98685.20
2023-01-25T16:28:23.317Z,98682.33
2023-01-25T16:30:55.686Z,98678.30
2023-01-25T16:33:28.218Z,98674.59
2023-01-25T16:36:16.850Z,98671.09
2023-01-25T16:38:49.442Z,98668.36
2023-01-25T16:41:21.572Z,98666.19
2023-01-25T16:43:54.448Z,98663.23
2023-01-25T16:46:27.181Z,98659.54
2023-01-25T16:49:00.736Z,98652.67
2023-01-25T16:51:33.199Z,98648.14
2023-01-25T16:54:05.968Z,98648.23
2023-01-25T16:56:39.420Z,98643.02
2023-01-25T16:59:13.413Z,98646.88
2023-01-25T17:01:46.067Z,98644.98
2023-01-25T17:04:18.271Z,98646.65
2023-01-25T17:06:53.260Z,98644.34
2023-01-25T17:09:26.072Z,98641.71
2023-01-25T17:11:58.607Z,98637.67
2023-01-25T17:14:30.705Z,98638.13
2023-01-25T17:17:02.669Z,98634.20
2023-01-25T17:19:34.872Z,98629.98
2023-01-25T17:22:07.945Z,98624.33
2023-01-25T17:24:40.077Z,98622.05
2023-01-25T17:27:12.077Z,98622.73
2023-01-25T17:29:44.213Z,98617.02
2023-01-25T17:32:16.339Z,98616.98
2023-01-25T17:34:48.460Z,98614.39
2023-01-25T17:37:20.597Z,98607.79
2023-01-25T17:39:54.191Z,98607.95
2023-01-25T17:42:24.658Z,98602.23
2023-01-25T17:44:57.021Z,98598.52
2023-01-25T17:47:31.843Z,98599.29
2023-01-25T17:50:04.262Z,98600.14
2023-01-25T17:52:36.188Z,98596.96
2023-01-25T17:55:09.920Z,98595.71
2023-01-25T17:57:42.668Z,98592.97
2023-01-25T18:00:17.446Z,98591.59
2023-01-25T18:02:49.673Z,98588.02
2023-01-25T18:05:22.455Z,98584.85
2023-01-25T18:07:55.647Z,98581.88
2023-01-25T18:10:28.023Z,98576.75
2023-01-25T18:13:04.747Z,98574.48
2023-01-25T18:15:37.274Z,98568.66
2023-01-25T18:18:10.361Z,98565.70
2023-01-25T18:20:44.279Z,98564.43
2023-01-25T18:23:19.914Z,98559.08
2023-01-25T18:25:54.577Z,98558.98
2023-01-25T18:28:28.037Z,98556.23
2023-01-25T18:31:03.620Z,98552.93
2023-01-25T18:33:36.275Z,98553.55
2023-01-25T18:36:09.720Z,98551.43
2023-01-25T18:38:42.029Z,98551.07
2023-01-25T18:41:14.740Z,98550.79
2023-01-25T18:43:50.082Z,98547.16
2023-01-25T18:46:22.235Z,98542.36
2023-01-25T18:48:54.635Z,98540.80
2023-01-25T18:51:27.060Z,98539.63
2023-01-25T18:53:59.747Z,98541.21
2023-01-25T18:56:32.826Z,98537.78
2023-01-25T18:59:07.375Z,98534.69
2023-01-25T19:01:42.936Z,98529.77
2023-01-25T19:04:15.276Z,98532.30
2023-01-25T19:06:47.574Z,98533.20
2023-01-25T19:09:19.861Z,98528.18
2023-01-25T19:11:52.430Z,98523.13
2023-01-25T19:14:26.243Z,98517.38
2023-01-25T19:16:56.666Z,98515.62
2023-01-25T19:19:32.361Z,98512.66
2023-01-25T19:22:05.086Z,98518.50
2023-01-25T19:24:37.501Z,98510.67
2023-01-25T19:27:09.575Z,98508.23
2023-01-25T19:29:41.870Z,98505.48
2023-01-25T19:32:23.912Z,98501.34
2023-01-25T19:34:56.086Z,98498.04
2023-01-25T19:37:28.399Z,98493.94
2023-01-25T19:40:00.657Z,98494.57
2023-01-25T19:42:32.987Z,98493.41
2023-01-25T19:45:06.611Z,98491.34
2023-01-25T19:47:39.058Z,98489.06
2023-01-25T19:50:14.474Z,98491.04
2023-01-25T19:52:47.548Z,98495.09
2023-01-25T19:55:21.241Z,98496.91
2023-01-25T19:57:51.998Z,98493.95
2023-01-25T20:00:25.045Z,98490.48
2023-01-25T20:03:07.297Z,98484.63
2023-01-25T20:05:47.577Z,98478.33
2023-01-25T20:08:19.728Z,98476.60
2023-01-25T20:10:51.818Z,98473.91
2023-01-25T20:13:24.150Z,98475.19
2023-01-25T20:15:59.198Z,98479.20
2023-01-25T20:18:34.192Z,98479.70
2023-01-25T20:21:08.098Z,98476.08
2023-01-25T20:23:42.068Z,98473.23
2023-01-25T20:26:18.368Z,98473.15
2023-01-25T20:28:53.212Z,98468.80
2023-01-25T20:31:26.908Z,98467.73
2023-01-25T20:34:03.580Z,98465.78
2023-01-25T20:36:37.877Z,98465.99
2023-01-25T20:39:13.612Z,98466.55
2023-01-25T20:41:46.520Z,98463.12
2023-01-25T20:44:20.660Z,98457.92
2023-01-25T20:46:55.985Z,98455.89
2023-01-25T20:49:29.100Z,98457.17
2023-01-25T20:52:02.753Z,98456.69
2023-01-25T20:54:35.817Z,98459.06
2023-01-25T20:57:08.651Z,98451.53
2023-01-25T20:59:42.039Z,98449.11
2023-01-25T21:02:15.231Z,98450.02
2023-01-25T21:04:47.956Z,98448.69
2023-01-25T21:07:20.029Z,98448.04
2023-01-25T21:09:52.230Z,98446.81
2023-01-25T21:12:24.355Z,98437.73
2023-01-25T21:14:56.953Z,98431.95
2023-01-25T21:17:29.748Z,98430.31
2023-01-25T21:20:04.929Z,98435.33
2023-01-25T21:22:37.100Z,98434.48
2023-01-25T21:25:12.894Z,98435.18
2023-01-25T21:27:45.507Z,98438.71
2023-01-25T21:30:18.957Z,98436.09
2023-01-25T21:32:52.081Z,98429.13
2023-01-25T21:35:27.442Z,98431.00
2023-01-25T21:38:00.259Z,98428.98
2023-01-25T21:40:32.218Z,98426.95
2023-01-25T21:43:04.490Z,98428.48
2023-01-25T21:45:56.987Z,98427.77
2023-01-25T21:48:46.297Z,98424.14
2023-01-25T21:51:35.881Z,98417.59
2023-01-25T21:54:08.123Z,98413.45
2023-01-25T21:56:40.617Z,98409.75
2023-01-25T21:59:13.190Z,98401.42
2023-01-25T22:01:45.928Z,98399.74
2023-01-25T22:04:20.256Z,98404.27
2023-01-25T22:06:54.643Z,98410.14
2023-01-25T22:09:27.416Z,98405.29
2023-01-25T22:11:59.887Z,98400.26
2023-01-25T22:14:32.089Z,98399.88
2023-01-25T22:17:04.296Z,98396.26
2023-01-25T22:19:36.487Z,98401.23
2023-01-25T22:22:08.666Z,98403.11
2023-01-25T22:24:40.743Z,98402.23
2023-01-25T22:27:33.380Z,98394.46
2023-01-25T22:30:05.839Z,98388.22
2023-01-25T22:32:37.916Z,98388.95
2023-01-25T22:35:11.387Z,98388.05
2023-01-25T22:37:41.832Z,98390.09
2023-01-25T22:40:15.436Z,98387.48
2023-01-25T22:42:45.598Z,98386.97
2023-01-25T22:45:17.764Z,98382.36
2023-01-25T22:47:49.738Z,98373.20
2023-01-25T22:50:21.847Z,98369.58
2023-01-25T22:52:53.777Z,98358.71
2023-01-25T22:55:25.687Z,98355.98
2023-01-25T22:57:58.150Z,98356.66
2023-01-25T23:00:30.630Z,98356.30
2023-01-25T23:03:02.757Z,98350.30
2023-01-25T23:05:34.797Z,98346.06
2023-01-25T23:08:06.968Z,98343.85
2023-01-25T23:10:39.118Z,98343.49
2023-01-25T23:13:11.272Z,98337.00
2023-01-25T23:15:45.639Z,98329.91
2023-01-25T23:18:35.269Z,98322.67
2023-01-25T23:21:08.862Z,98320.18
2023-01-25T23:23:41.009Z,98320.41
2023-01-25T23:26:13.354Z,98317.48
2023-01-25T23:28:50.967Z,98310.86
2023-01-25T23:31:25.541Z,98312.71
2023-01-25T23:34:00.846Z,98301.45
2023-01-25T23:36:34.898Z,98299.20
2023-01-25T23:39:07.415Z,98295.36
2023-01-25T23:41:39.909Z,98297.16
2023-01-25T23:44:11.886Z,98294.33
2023-01-25T23:46:44.091Z,98295.58
2023-01-25T23:49:16.472Z,98288.00
2023-01-25T23:51:48.926Z,98286.27
2023-01-25T23:54:21.699Z,98283.88
2023-01-25T23:56:53.817Z,98283.52
2023-01-25T23:59:26.654Z,98279.48
